Time;durP1;ratioP1;P1;durP2;ratioP2;P2;SDS_P1;SDS_P2;PMS_P1;PMS_P2;Temp;Humidity;BMP_temperature;BMP_pressure;BME280_temperature;BME280_humidity;BME280_pressure;Samples;Min_cycle;Max_cycle;Signal;HPM_P1;HPM_P2
2024/01/23 00:02:00;;;;;;;13.90;2.40;;;7.40;99.90;;;;;;5003743;28;20215;-66
2024/01/23 00:04:28;;;;;;;7.90;1.73;;;7.20;99.90;;;;;;4997218;28;20216;-66
2024/01/23 00:06:55;;;;;;;11.10;2.23;;;7.00;99.90;;;;;;5013815;28;20208;-66
2024/01/23 00:09:23;;;;;;;13.43;2.17;;;7.00;99.90;;;;;;5009498;28;20197;-66
2024/01/23 00:11:49;;;;;;;4.90;1.20;;;6.80;99.90;;;;;;5020557;28;20554;-66
2024/01/23 00:14:16;;;;;;;3.93;1.03;;;6.30;99.90;;;;;;5019827;28;20235;-66
2024/01/23 00:16:43;;;;;;;4.33;1.00;;;5.90;99.90;;;;;;5010439;28;20202;-66
2024/01/23 00:19:10;;;;;;;2.80;1.03;;;5.90;99.90;;;;;;4989766;28;20414;-66
2024/01/23 00:21:38;;;;;;;5.23;1.03;;;6.10;99.90;;;;;;5010828;28;20227;-66
2024/01/23 00:24:06;;;;;;;1.67;1.00;;;6.10;99.90;;;;;;5008001;28;20213;-66
2024/01/23 00:26:33;;;;;;;5.47;1.50;;;5.80;99.90;;;;;;5021848;28;20205;-66
2024/01/23 00:29:00;;;;;;;1.83;0.60;;;5.70;99.90;;;;;;5018405;28;20280;-66
2024/01/23 00:31:27;;;;;;;7.73;1.07;;;5.80;99.90;;;;;;5007410;28;20209;-66
2024/01/23 00:33:54;;;;;;;3.33;0.90;;;5.80;99.90;;;;;;4987931;28;20229;-66
2024/01/23 00:36:22;;;;;;;3.60;1.07;;;5.80;99.90;;;;;;5022867;28;21840;-66
2024/01/23 00:38:50;;;;;;;5.77;1.20;;;5.70;99.90;;;;;;5010276;28;20299;-66
2024/01/23 00:41:17;;;;;;;2.27;1.13;;;;;;;;;;5010667;28;20208;-66
2024/01/23 00:43:44;;;;;;;4.37;1.10;;;5.70;99.90;;;;;;5021642;28;20292;-66
2024/01/23 00:46:11;;;;;;;7.47;1.50;;;5.70;99.90;;;;;;5012115;28;20202;-67
2024/01/23 00:48:38;;;;;;;2.73;1.00;;;5.80;99.90;;;;;;5014237;28;20748;-66
2024/01/23 00:51:05;;;;;;;3.30;0.90;;;5.80;99.90;;;;;;4995038;28;21016;-66
2024/01/23 00:53:32;;;;;;;5.07;1.10;;;5.90;99.90;;;;;;5015466;28;20221;-66
2024/01/23 00:56:00;;;;;;;6.77;1.50;;;5.80;99.90;;;;;;5014912;28;20747;-66
2024/01/23 00:58:27;;;;;;;2.97;1.33;;;5.90;99.90;;;;;;5023610;28;20246;-66
2024/01/23 01:00:54;;;;;;;4.03;1.20;;;5.90;99.90;;;;;;5022467;28;20202;-67
2024/01/23 01:03:21;;;;;;;6.07;1.50;;;5.90;99.90;;;;;;5012855;28;20292;-67
2024/01/23 01:05:48;;;;;;;5.87;1.20;;;;;;;;;;4977380;28;20213;-66
2024/01/23 01:08:15;;;;;;;7.90;1.53;;;6.00;99.90;;;;;;5023169;28;20197;-66
2024/01/23 01:10:42;;;;;;;6.43;1.60;;;6.00;99.90;;;;;;4999620;28;20208;-66
2024/01/23 01:13:10;;;;;;;14.10;1.93;;;6.10;99.90;;;;;;5022189;28;20315;-66
2024/01/23 01:15:38;;;;;;;8.30;1.83;;;6.10;99.90;;;;;;5020791;28;20210;-66
2024/01/23 01:18:06;;;;;;;6.40;1.60;;;6.10;99.90;;;;;;5022057;28;20206;-66
2024/01/23 01:20:33;;;;;;;13.10;1.90;;;6.10;99.90;;;;;;4987052;28;20229;-66
2024/01/23 01:23:00;;;;;;;8.23;1.63;;;6.10;99.90;;;;;;5017324;28;20197;-66
2024/01/23 01:25:27;;;;;;;8.20;1.73;;;6.20;99.90;;;;;;5009753;28;20797;-66
2024/01/23 01:27:54;;;;;;;10.47;1.80;;;6.10;99.90;;;;;;5011061;28;20706;-66
2024/01/23 01:30:28;;;;;;;5.37;1.43;;;6.20;99.90;;;;;;5022932;28;20259;-66
2024/01/23 01:32:54;;;;;;;6.03;1.80;;;6.40;99.90;;;;;;5020948;28;20350;-66
2024/01/23 01:35:21;;;;;;;17.37;2.57;;;6.20;99.90;;;;;;5003869;28;20705;-66
2024/01/23 01:37:49;;;;;;;10.27;1.60;;;5.60;99.90;;;;;;4990391;28;20298;-66
2024/01/23 01:40:16;;;;;;;18.80;2.27;;;6.20;99.90;;;;;;5013606;28;20620;-66
2024/01/23 01:42:43;;;;;;;12.47;2.47;;;6.20;99.90;;;;;;5008879;28;20343;-66
2024/01/23 01:45:11;;;;;;;13.43;2.43;;;6.20;99.90;;;;;;5020826;28;20299;-67
2024/01/23 01:47:41;;;;;;;11.37;2.10;;;6.20;99.90;;;;;;5024332;28;20193;-67
2024/01/23 01:50:09;;;;;;;7.60;1.70;;;6.20;99.90;;;;;;4999810;28;20205;-66
2024/01/23 01:52:37;;;;;;;12.47;2.37;;;6.20;99.90;;;;;;4988393;28;20709;-66
2024/01/23 01:55:05;;;;;;;13.30;2.30;;;6.20;99.90;;;;;;5017832;28;20217;-66
2024/01/23 01:57:33;;;;;;;10.57;1.93;;;6.20;99.90;;;;;;5026771;28;20225;-66
2024/01/23 02:00:00;;;;;;;6.00;1.60;;;6.20;99.90;;;;;;5012860;28;20205;-66
2024/01/23 02:02:27;;;;;;;8.93;1.70;;;6.30;99.90;;;;;;5018568;28;20204;-66
2024/01/23 02:04:56;;;;;;;10.70;2.03;;;6.30;99.90;;;;;;5017329;28;20209;-66
2024/01/23 02:07:22;;;;;;;14.90;2.53;;;6.30;99.90;;;;;;4978185;28;20833;-67
2024/01/23 02:09:49;;;;;;;10.67;1.80;;;6.30;99.90;;;;;;5024407;28;20198;-66
2024/01/23 02:12:16;;;;;;;13.27;2.00;;;6.30;99.90;;;;;;5011353;28;20216;-66
2024/01/23 02:14:43;;;;;;;10.43;2.10;;;6.30;99.90;;;;;;5012990;28;20225;-66
2024/01/23 02:17:10;;;;;;;13.20;2.10;;;7.80;99.90;;;;;;5021028;28;20205;-66
2024/01/23 02:19:37;;;;;;;14.50;2.33;;;6.80;99.90;;;;;;5019234;28;20663;-66
2024/01/23 02:22:05;;;;;;;13.40;3.00;;;6.40;99.90;;;;;;5000466;28;20229;-66
2024/01/23 02:24:34;;;;;;;9.50;1.77;;;6.40;99.90;;;;;;5004262;28;20693;-67
2024/01/23 02:27:00;;;;;;;12.93;2.17;;;6.40;99.90;;;;;;5018067;28;20204;-67
2024/01/23 02:29:28;;;;;;;11.67;2.00;;;6.40;99.90;;;;;;5013656;28;20240;-66
2024/01/23 02:31:55;;;;;;;8.37;2.27;;;6.30;99.90;;;;;;5023436;28;20960;-66
2024/01/23 02:34:22;;;;;;;9.70;2.00;;;6.40;99.90;;;;;;5016887;28;20236;-66
2024/01/23 02:36:49;;;;;;;13.23;2.23;;;6.30;99.90;;;;;;5006243;28;20205;-66
2024/01/23 02:39:15;;;;;;;9.03;2.30;;;6.30;99.90;;;;;;4991658;28;20578;-66
2024/01/23 02:41:44;;;;;;;6.70;1.80;;;6.40;99.90;;;;;;5021542;28;20840;-66
2024/01/23 02:44:11;;;;;;;9.93;2.03;;;6.30;99.90;;;;;;5007053;28;20683;-66
2024/01/23 02:46:38;;;;;;;7.53;1.90;;;;;;;;;;5017370;28;20301;-66
2024/01/23 02:49:05;;;;;;;12.27;2.03;;;6.30;99.90;;;;;;5020627;28;20204;-67
2024/01/23 02:51:31;;;;;;;14.90;2.23;;;6.30;99.90;;;;;;5012569;28;20304;-66
2024/01/23 02:53:59;;;;;;;10.30;2.43;;;6.30;99.90;;;;;;4993413;28;20202;-66
2024/01/23 02:56:26;;;;;;;10.10;2.60;;;6.60;99.90;;;;;;5022729;28;20283;-66
2024/01/23 02:58:54;;;;;;;18.17;2.40;;;6.30;99.90;;;;;;5009981;28;20268;-66
2024/01/23 03:01:21;;;;;;;9.97;2.03;;;6.50;99.90;;;;;;5006639;28;20580;-66
2024/01/23 03:03:48;;;;;;;11.53;2.33;;;6.30;99.90;;;;;;5023370;28;20197;-66
2024/01/23 03:06:15;;;;;;;12.93;2.33;;;6.30;99.90;;;;;;5023272;28;20216;-67
2024/01/23 03:08:42;;;;;;;23.53;2.67;;;6.90;99.90;;;;;;5010768;28;20676;-66
2024/01/23 03:11:09;;;;;;;10.17;1.70;;;6.30;99.90;;;;;;4991332;28;20213;-66
2024/01/23 03:13:36;;;;;;;9.30;2.20;;;6.30;99.90;;;;;;5023773;28;20201;-67
2024/01/23 03:16:05;;;;;;;10.00;2.30;;;6.40;99.90;;;;;;5010455;28;20234;-66
2024/01/23 03:18:32;;;;;;;15.10;2.03;;;6.30;99.90;;;;;;5022474;28;20743;-66
2024/01/23 03:20:59;;;;;;;12.30;2.33;;;6.30;99.90;;;;;;5025274;28;20239;-66
2024/01/23 03:23:26;;;;;;;7.97;1.90;;;6.30;99.90;;;;;;5008458;28;20535;-67
2024/01/23 03:25:53;;;;;;;10.70;1.63;;;6.30;99.90;;;;;;4991397;28;20214;-66
2024/01/23 03:28:19;;;;;;;13.07;2.23;;;6.00;99.90;;;;;;5012650;28;20258;-66
2024/01/23 03:30:45;;;;;;;12.87;2.40;;;6.40;99.90;;;;;;5012915;28;20687;-66
2024/01/23 03:33:14;;;;;;;15.07;2.90;;;6.40;99.90;;;;;;5017265;28;20305;-66
2024/01/23 03:35:41;;;;;;;12.53;1.57;;;6.40;99.90;;;;;;5018377;28;20229;-66
2024/01/23 03:38:09;;;;;;;12.67;2.87;;;6.30;99.90;;;;;;5013946;28;20205;-66
2024/01/23 03:40:35;;;;;;;14.43;2.37;;;6.30;99.90;;;;;;4988969;28;21986;-66
2024/01/23 03:43:02;;;;;;;17.80;3.07;;;;;;;;;;5026192;28;20212;-66
2024/01/23 03:45:29;;;;;;;12.40;2.57;;;6.30;99.90;;;;;;5017484;28;20212;-66
2024/01/23 03:47:57;;;;;;;14.27;2.80;;;6.40;99.90;;;;;;5014252;28;20203;-66
2024/01/23 03:50:25;;;;;;;10.47;2.17;;;6.50;99.90;;;;;;5011553;28;20322;-66
2024/01/23 03:52:52;;;;;;;8.50;2.30;;;6.40;99.90;;;;;;5012050;28;20201;-66
2024/01/23 03:55:19;;;;;;;9.73;2.80;;;;;;;;;;4987589;28;20225;-66
2024/01/23 03:57:46;;;;;;;9.80;1.60;;;6.40;99.90;;;;;;5021428;28;20702;-67
2024/01/23 04:00:14;;;;;;;16.43;3.10;;;6.40;99.90;;;;;;5020302;28;20694;-67
2024/01/23 04:02:41;;;;;;;15.50;2.97;;;6.50;99.90;;;;;;5011612;28;20201;-66
2024/01/23 04:05:09;;;;;;;18.13;3.43;;;6.40;99.90;;;;;;5010421;28;20213;-66
2024/01/23 04:07:37;;;;;;;18.17;2.67;;;6.50;99.90;;;;;;5018575;28;20630;-66
2024/01/23 04:10:05;;;;;;;12.67;2.90;;;6.40;99.90;;;;;;5001007;28;20206;-66
2024/01/23 04:12:31;;;;;;;9.83;2.50;;;6.50;99.90;;;;;;4997494;28;20971;-66
2024/01/23 04:14:59;;;;;;;14.63;1.90;;;6.50;99.90;;;;;;5021738;28;20996;-66
2024/01/23 04:17:28;;;;;;;8.63;2.40;;;6.10;99.90;;;;;;5007972;28;20306;-66
2024/01/23 04:19:55;;;;;;;11.40;2.30;;;6.50;99.90;;;;;;5019668;28;20264;-66
2024/01/23 04:22:21;;;;;;;10.47;2.87;;;6.50;99.90;;;;;;5016131;28;20243;-66
2024/01/23 04:24:49;;;;;;;13.83;2.30;;;6.50;99.90;;;;;;5003977;28;20213;-66
2024/01/23 04:27:16;;;;;;;22.10;2.93;;;6.50;99.90;;;;;;4985847;28;20205;-66
2024/01/23 04:29:43;;;;;;;16.27;2.97;;;7.10;99.90;;;;;;5021561;28;20202;-66
2024/01/23 04:32:10;;;;;;;11.50;2.77;;;6.50;99.90;;;;;;4996528;28;20217;-66
2024/01/23 04:34:37;;;;;;;21.37;2.37;;;6.50;99.90;;;;;;5008562;28;20229;-66
2024/01/23 04:37:04;;;;;;;12.27;2.80;;;6.50;99.90;;;;;;5006987;28;20234;-66
2024/01/23 04:39:31;;;;;;;14.43;2.50;;;7.00;99.90;;;;;;5004487;28;20899;-65
2024/01/23 04:41:59;;;;;;;15.27;2.73;;;6.40;99.90;;;;;;4977744;28;20229;-66
2024/01/23 04:44:26;;;;;;;14.50;2.73;;;6.50;99.90;;;;;;5013164;28;20218;-66
2024/01/23 04:46:53;;;;;;;13.90;2.07;;;6.80;99.90;;;;;;5007008;28;20201;-66
2024/01/23 04:49:19;;;;;;;12.83;3.00;;;6.60;99.90;;;;;;5007411;28;20805;-66
2024/01/23 04:51:46;;;;;;;8.77;2.40;;;6.60;99.90;;;;;;5005444;28;20216;-66
2024/01/23 04:54:13;;;;;;;12.17;3.07;;;6.60;99.90;;;;;;5016369;28;20208;-66
2024/01/23 04:56:41;;;;;;;13.20;2.40;;;6.60;99.90;;;;;;4989184;28;21159;-66
2024/01/23 04:59:09;;;;;;;14.40;2.67;;;6.60;99.90;;;;;;4983986;28;20706;-65
2024/01/23 05:01:36;;;;;;;11.60;2.83;;;6.60;99.90;;;;;;5000505;28;20228;-65
2024/01/23 05:04:03;;;;;;;19.90;3.40;;;6.40;99.90;;;;;;5002796;28;20201;-66
2024/01/23 05:06:30;;;;;;;13.73;2.53;;;6.60;99.90;;;;;;5004030;28;20778;-66
2024/01/23 05:08:57;;;;;;;21.90;3.53;;;6.60;99.90;;;;;;4995164;28;20233;-66
2024/01/23 05:11:24;;;;;;;14.13;2.63;;;6.70;99.90;;;;;;4998492;28;20201;-66
2024/01/23 05:13:51;;;;;;;21.83;2.90;;;;;;;;;;4984686;28;20397;-66
2024/01/23 05:16:19;;;;;;;15.23;3.23;;;6.70;99.90;;;;;;5006479;28;20248;-66
2024/01/23 05:18:46;;;;;;;12.90;2.63;;;7.40;99.90;;;;;;5018244;28;21061;-66
2024/01/23 05:21:14;;;;;;;19.17;3.20;;;6.70;99.90;;;;;;5003479;28;20373;-66
2024/01/23 05:23:42;;;;;;;16.00;2.80;;;6.70;99.90;;;;;;4999437;28;20206;-66
2024/01/23 05:26:09;;;;;;;16.90;2.93;;;6.60;99.90;;;;;;4995311;28;20789;-66
2024/01/23 05:28:36;;;;;;;15.27;3.03;;;6.70;99.90;;;;;;4972914;28;21214;-66
2024/01/23 05:31:03;;;;;;;13.53;3.80;;;6.50;99.90;;;;;;5016327;28;20974;-66
2024/01/23 05:33:31;;;;;;;14.63;2.93;;;6.60;99.90;;;;;;5011146;28;20210;-66
2024/01/23 05:35:58;;;;;;;14.23;3.57;;;6.40;99.90;;;;;;5002386;28;20592;-66
2024/01/23 05:38:23;;;;;;;11.63;2.13;;;6.90;99.90;;;;;;5005123;28;20228;-66
2024/01/23 05:40:50;;;;;;;14.37;3.00;;;7.20;99.90;;;;;;4990026;28;21214;-66
2024/01/23 05:43:17;;;;;;;19.60;3.57;;;7.00;99.90;;;;;;5013268;28;20573;-66
2024/01/23 05:45:44;;;;;;;16.10;2.70;;;6.00;99.90;;;;;;4984501;28;20337;-66
2024/01/23 05:48:11;;;;;;;18.17;3.50;;;6.80;99.90;;;;;;5003789;28;20835;-66
2024/01/23 05:50:39;;;;;;;17.73;3.13;;;6.70;99.90;;;;;;4999300;28;20761;-66
2024/01/23 05:53:06;;;;;;;17.90;2.90;;;6.90;99.90;;;;;;5014357;28;20404;-66
2024/01/23 05:55:33;;;;;;;18.10;2.70;;;;;;;;;;4998454;28;20220;-66
2024/01/23 05:58:00;;;;;;;20.80;3.17;;;6.70;99.90;;;;;;5008233;28;20247;-66
2024/01/23 06:00:27;;;;;;;18.00;4.03;;;6.70;99.90;;;;;;4977202;28;20221;-66
2024/01/23 06:02:54;;;;;;;13.20;2.73;;;6.70;99.90;;;;;;4993567;28;20231;-66
2024/01/23 06:05:22;;;;;;;9.73;2.70;;;6.70;99.90;;;;;;4994694;28;20225;-66
2024/01/23 06:07:50;;;;;;;15.03;2.90;;;6.60;99.90;;;;;;5006818;28;20417;-66
2024/01/23 06:10:17;;;;;;;21.37;3.13;;;6.70;99.90;;;;;;4999714;28;20318;-66
2024/01/23 06:12:44;;;;;;;12.23;3.27;;;7.50;99.90;;;;;;5003946;28;20324;-66
2024/01/23 06:15:11;;;;;;;7.10;2.13;;;6.80;99.90;;;;;;4972337;28;20626;-68
2024/01/23 06:17:38;;;;;;;11.70;2.80;;;7.30;99.90;;;;;;5015819;28;21414;-66
2024/01/23 06:20:07;;;;;;;25.67;3.63;;;7.30;99.90;;;;;;5014530;28;20331;-66
2024/01/23 06:22:34;;;;;;;13.77;2.77;;;7.50;99.90;;;;;;5000684;28;20213;-66
2024/01/23 06:25:03;;;;;;;20.03;4.17;;;7.40;99.90;;;;;;5004702;28;20893;-66
2024/01/23 06:27:30;;;;;;;20.57;3.80;;;7.00;99.90;;;;;;4997264;28;20914;-65
2024/01/23 06:29:57;;;;;;;13.33;2.50;;;7.40;99.90;;;;;;5009553;28;20290;-66
2024/01/23 06:32:24;;;;;;;13.23;2.90;;;6.90;99.90;;;;;;4976538;28;20222;-65
2024/01/23 06:34:51;;;;;;;13.20;2.83;;;6.90;99.90;;;;;;5009867;28;20451;-65
2024/01/23 06:37:19;;;;;;;21.90;3.27;;;6.90;99.90;;;;;;5015747;28;20236;-66
2024/01/23 06:39:46;;;;;;;13.90;2.80;;;6.90;99.90;;;;;;5012397;28;20669;-66
2024/01/23 06:42:14;;;;;;;17.20;3.40;;;6.90;99.90;;;;;;5004203;28;20591;-65
2024/01/23 06:44:41;;;;;;;17.07;4.20;;;6.90;99.90;;;;;;4994989;28;20245;-66
2024/01/23 06:47:08;;;;;;;16.67;3.40;;;6.90;99.90;;;;;;4984338;28;20579;-66
2024/01/23 06:49:35;;;;;;;22.87;3.63;;;6.90;99.90;;;;;;5000846;28;20197;-66
2024/01/23 06:52:02;;;;;;;29.13;4.13;;;6.80;99.90;;;;;;5016608;28;20285;-65
2024/01/23 06:54:28;;;;;;;20.40;3.23;;;7.10;99.90;;;;;;4995700;28;20212;-65
2024/01/23 06:56:55;;;;;;;19.13;3.47;;;6.90;99.90;;;;;;5011032;28;20688;-65
2024/01/23 06:59:25;;;;;;;25.00;4.03;;;6.90;99.90;;;;;;5000394;28;20233;-65
2024/01/23 07:01:51;;;;;;;21.37;3.43;;;6.90;99.90;;;;;;4982743;28;20229;-65
2024/01/23 07:04:18;;;;;;;19.80;3.70;;;7.00;99.90;;;;;;5010059;28;20221;-66
2024/01/23 07:06:45;;;;;;;8.93;2.83;;;6.90;99.90;;;;;;5011035;28;20205;-66
2024/01/23 07:09:13;;;;;;;16.53;2.90;;;6.90;99.90;;;;;;5010651;28;20216;-66
2024/01/23 07:11:41;;;;;;;22.40;4.07;;;6.90;99.90;;;;;;5012221;28;20833;-66
2024/01/23 07:14:08;;;;;;;23.37;3.60;;;7.00;99.90;;;;;;4998732;28;20627;-66
2024/01/23 07:16:36;;;;;;;15.60;3.03;;;7.00;99.90;;;;;;5005574;28;20398;-66
2024/01/23 07:19:03;;;;;;;20.97;3.77;;;7.00;99.90;;;;;;4987455;28;20220;-65
2024/01/23 07:21:30;;;;;;;21.90;4.27;;;;;;;;;;5006546;28;20746;-65
2024/01/23 07:23:57;;;;;;;16.83;3.60;;;7.00;99.90;;;;;;5005125;28;20206;-65
2024/01/23 07:26:24;;;;;;;18.73;3.13;;;6.90;99.90;;;;;;5016262;28;20197;-65
2024/01/23 07:28:51;;;;;;;15.70;3.57;;;7.00;99.90;;;;;;5005803;28;23003;-67
2024/01/23 07:31:18;;;;;;;12.13;3.00;;;7.00;99.90;;;;;;5018468;28;20198;-65
2024/01/23 07:33:47;;;;;;;21.70;3.87;;;7.00;99.90;;;;;;4981152;28;21554;-66
2024/01/23 07:36:14;;;;;;;14.03;3.60;;;7.00;99.90;;;;;;5016862;28;20239;-66
2024/01/23 07:38:40;;;;;;;17.93;3.17;;;7.00;99.90;;;;;;4999987;28;20414;-66
2024/01/23 07:41:07;;;;;;;17.33;4.03;;;7.00;99.90;;;;;;5009835;28;21042;-66
2024/01/23 07:43:35;;;;;;;20.13;4.30;;;7.00;99.90;;;;;;5001675;28;20506;-66
2024/01/23 07:46:02;;;;;;;18.40;3.67;;;7.00;99.90;;;;;;5012391;28;20274;-65
2024/01/23 07:48:29;;;;;;;22.63;3.43;;;7.60;99.90;;;;;;4998284;28;20808;-65
2024/01/23 07:50:58;;;;;;;17.40;3.23;;;7.00;99.90;;;;;;5008224;28;20215;-67
2024/01/23 07:53:25;;;;;;;24.67;3.97;;;7.40;99.90;;;;;;5017328;28;20194;-66
2024/01/23 07:55:52;;;;;;;15.03;3.23;;;6.80;99.90;;;;;;5007691;28;20251;-66
2024/01/23 07:58:19;;;;;;;15.40;3.97;;;6.90;99.90;;;;;;5004904;28;20198;-66
2024/01/23 08:00:46;;;;;;;25.00;4.43;;;6.80;99.90;;;;;;5006704;28;20197;-65
2024/01/23 08:03:13;;;;;;;26.60;4.83;;;6.80;99.90;;;;;;5017572;28;20204;-66
2024/01/23 08:05:40;;;;;;;24.20;4.07;;;6.80;99.90;;;;;;4980767;28;20429;-65
2024/01/23 08:08:09;;;;;;;11.37;3.03;;;6.80;99.90;;;;;;5015537;28;20221;-66
2024/01/23 08:10:35;;;;;;;20.70;3.90;;;6.30;99.90;;;;;;5002642;28;20748;-66
2024/01/23 08:13:03;;;;;;;13.67;3.93;;;6.80;99.90;;;;;;5017395;28;20829;-66
2024/01/23 08:15:30;;;;;;;22.20;3.60;;;6.70;99.90;;;;;;5001407;28;20205;-66
2024/01/23 08:17:56;;;;;;;24.00;3.93;;;6.90;99.90;;;;;;5008869;28;20208;-65
2024/01/23 08:20:23;;;;;;;20.23;3.83;;;6.80;99.90;;;;;;4979946;28;20233;-65
2024/01/23 08:22:51;;;;;;;26.37;3.83;;;6.80;99.90;;;;;;5014343;28;20278;-66
2024/01/23 08:25:19;;;;;;;20.30;3.23;;;8.20;99.90;;;;;;5019150;28;20306;-65
2024/01/23 08:27:46;;;;;;;28.27;4.20;;;6.90;99.90;;;;;;5004604;28;20800;-66
2024/01/23 08:30:13;;;;;;;19.13;3.93;;;6.90;99.90;;;;;;5016142;28;20499;-66
2024/01/23 08:32:40;;;;;;;26.53;4.70;;;6.80;99.90;;;;;;4994523;28;20322;-66
2024/01/23 08:35:08;;;;;;;21.13;3.77;;;6.80;99.90;;;;;;5007708;28;20215;-66
2024/01/23 08:37:35;;;;;;;19.10;4.03;;;6.70;99.90;;;;;;4971724;28;20666;-66
2024/01/23 08:40:02;;;;;;;27.73;3.93;;;6.80;99.90;;;;;;5013295;28;20202;-66
2024/01/23 08:42:31;;;;;;;14.87;3.47;;;6.70;99.90;;;;;;4985880;28;20323;-66
2024/01/23 08:44:57;;;;;;;22.23;4.70;;;6.80;99.90;;;;;;5008717;28;20439;-66
2024/01/23 08:47:25;;;;;;;25.93;4.07;;;;;;;;;;4995304;28;20758;-66
2024/01/23 08:49:51;;;;;;;29.23;4.27;;;6.70;99.90;;;;;;5008545;28;20750;-66
2024/01/23 08:52:18;;;;;;;25.93;4.30;;;6.70;99.90;;;;;;4982596;28;21535;-66
2024/01/23 08:54:45;;;;;;;24.93;4.47;;;6.80;99.90;;;;;;5010691;28;20189;-66
2024/01/23 08:57:12;;;;;;;24.67;4.67;;;6.80;99.90;;;;;;5001184;28;20561;-66
2024/01/23 08:59:41;;;;;;;31.67;4.77;;;6.70;99.90;;;;;;4995546;28;20602;-65
2024/01/23 09:02:08;;;;;;;21.77;4.20;;;6.70;99.90;;;;;;5002625;28;20420;-66
2024/01/23 09:04:35;;;;;;;22.53;5.07;;;7.00;99.90;;;;;;5016626;28;20206;-66
2024/01/23 09:07:02;;;;;;;31.93;4.63;;;6.80;99.90;;;;;;4984294;28;20513;-66
2024/01/23 09:09:29;;;;;;;19.43;4.17;;;6.80;99.90;;;;;;5019272;28;20356;-66
2024/01/23 09:11:55;;;;;;;28.37;3.87;;;6.90;99.90;;;;;;5016324;28;20697;-66
2024/01/23 09:14:22;;;;;;;18.10;4.27;;;6.80;99.90;;;;;;5007948;28;20841;-66
2024/01/23 09:16:51;;;;;;;26.60;4.80;;;6.80;99.90;;;;;;5001741;28;20480;-66
2024/01/23 09:19:17;;;;;;;12.93;3.40;;;6.80;99.90;;;;;;5019809;28;20203;-66
2024/01/23 09:21:44;;;;;;;36.83;5.00;;;6.80;99.90;;;;;;5004114;28;20231;-66
2024/01/23 09:24:11;;;;;;;25.10;3.87;;;6.80;99.90;;;;;;5002958;28;20917;-65
2024/01/23 09:26:39;;;;;;;24.13;4.73;;;6.90;99.90;;;;;;5017560;28;20639;-65
2024/01/23 09:29:06;;;;;;;19.90;4.63;;;6.80;99.90;;;;;;5005609;28;20713;-66
2024/01/23 09:31:33;;;;;;;20.37;4.20;;;6.80;99.90;;;;;;5008535;28;20213;-66
2024/01/23 09:34:01;;;;;;;23.53;4.10;;;6.80;99.90;;;;;;5015477;28;20194;-65
2024/01/23 09:36:28;;;;;;;30.53;3.97;;;6.80;99.90;;;;;;5014880;28;20225;-66
2024/01/23 09:38:55;;;;;;;18.30;3.30;;;6.90;99.90;;;;;;4983682;28;20234;-65
2024/01/23 09:41:24;;;;;;;25.10;4.37;;;6.90;99.90;;;;;;5022692;28;20310;-66
2024/01/23 09:43:52;;;;;;;22.63;4.43;;;7.00;99.90;;;;;;5007959;28;20224;-66
2024/01/23 09:46:20;;;;;;;18.93;4.20;;;7.00;99.90;;;;;;4996433;28;20202;-66
2024/01/23 09:48:48;;;;;;;22.13;5.23;;;6.90;99.90;;;;;;5014534;28;20436;-66
2024/01/23 09:51:16;;;;;;;20.57;4.73;;;6.90;99.90;;;;;;5016223;28;20279;-65
2024/01/23 09:53:44;;;;;;;18.23;4.63;;;7.40;99.90;;;;;;4986109;28;20437;-66
2024/01/23 09:56:12;;;;;;;25.93;4.77;;;6.90;99.90;;;;;;5017947;28;20200;-65
2024/01/23 09:58:39;;;;;;;24.90;4.43;;;6.40;99.90;;;;;;5020643;28;20706;-66
2024/01/23 10:01:06;;;;;;;23.00;4.80;;;6.90;99.90;;;;;;5012310;28;20205;-66
2024/01/23 10:03:34;;;;;;;13.93;3.57;;;7.00;99.90;;;;;;5002146;28;20957;-66
2024/01/23 10:06:01;;;;;;;22.23;4.40;;;7.00;99.90;;;;;;5019083;28;20227;-66
2024/01/23 10:08:29;;;;;;;25.63;5.57;;;7.10;99.90;;;;;;5010923;28;20663;-66
2024/01/23 10:11:00;;;;;;;29.20;5.53;;;7.10;99.90;;;;;;4984404;28;20305;-66
2024/01/23 10:13:27;;;;;;;31.13;5.80;;;6.80;99.90;;;;;;5012324;28;21337;-66
2024/01/23 10:15:54;;;;;;;25.87;4.90;;;6.80;99.90;;;;;;5010863;28;20198;-67
2024/01/23 10:18:22;;;;;;;27.53;4.90;;;7.00;99.90;;;;;;4993411;28;20230;-66
2024/01/23 10:20:49;;;;;;;27.50;4.67;;;7.10;99.90;;;;;;5017731;28;20253;-65
2024/01/23 10:23:17;;;;;;;27.50;4.50;;;7.10;99.90;;;;;;5009180;28;20557;-66
2024/01/23 10:25:46;;;;;;;19.80;4.00;;;7.20;99.90;;;;;;4978587;28;21718;-66
2024/01/23 10:28:15;;;;;;;28.43;4.70;;;7.10;99.90;;;;;;5019270;28;20198;-66
2024/01/23 10:30:43;;;;;;;27.83;5.23;;;7.10;99.90;;;;;;5003635;28;20756;-65
2024/01/23 10:33:11;;;;;;;23.83;4.47;;;7.10;99.90;;;;;;5017021;28;20202;-65
2024/01/23 10:35:38;;;;;;;26.27;4.43;;;7.10;99.90;;;;;;5009091;28;20473;-66
2024/01/23 10:38:06;;;;;;;19.70;4.13;;;7.10;99.90;;;;;;5014664;28;21706;-66
2024/01/23 10:40:33;;;;;;;26.13;4.97;;;7.10;99.90;;;;;;5004128;28;20205;-65
2024/01/23 10:43:04;;;;;;;24.90;5.03;;;7.10;99.90;;;;;;4976858;28;20251;-65
2024/01/23 10:45:32;;;;;;;25.87;5.13;;;7.40;99.90;;;;;;4999892;28;20221;-66
2024/01/23 10:48:01;;;;;;;23.27;5.90;;;7.40;99.90;;;;;;5015985;28;20209;-66
2024/01/23 10:50:29;;;;;;;26.67;4.90;;;7.50;99.90;;;;;;5001654;28;20471;-66
2024/01/23 10:53:02;;;;;;;27.53;5.23;;;8.50;99.90;;;;;;5015987;28;20214;-66
2024/01/23 10:55:32;;;;;;;28.70;4.40;;;7.50;99.90;;;;;;5003824;28;20253;-66
2024/01/23 10:58:03;;;;;;;26.33;4.17;;;7.50;99.90;;;;;;4983404;28;20295;-66
2024/01/23 11:00:31;;;;;;;18.93;4.00;;;6.70;99.90;;;;;;5009859;28;20781;-65
2024/01/23 11:03:00;;;;;;;19.90;4.40;;;7.40;99.90;;;;;;5003393;28;20573;-65
2024/01/23 11:05:30;;;;;;;20.13;3.83;;;7.40;99.90;;;;;;4998233;28;20232;-66
2024/01/23 11:08:01;;;;;;;25.07;4.20;;;7.30;99.90;;;;;;5005472;28;20197;-66
2024/01/23 11:10:40;;;;;;;18.13;4.53;;;7.40;99.90;;;;;;5015344;28;20214;-66
2024/01/23 11:13:14;;;;;;;21.43;4.40;;;7.40;99.90;;;;;;4985684;28;20244;-66
2024/01/23 11:15:41;;;;;;;25.33;4.70;;;7.40;99.90;;;;;;5015727;28;20797;-65
2024/01/23 11:18:26;;;;;;;28.63;6.27;;;7.30;99.90;;;;;;5000299;28;20596;-65
2024/01/23 11:21:13;;;;;;;23.27;5.33;;;7.50;99.90;;;;;;5001292;28;20998;-66
2024/01/23 11:23:41;;;;;;;21.27;4.50;;;7.70;99.90;;;;;;5013858;28;20208;-66
2024/01/23 11:26:15;;;;;;;24.70;4.27;;;7.40;99.90;;;;;;5017229;28;20204;-66
2024/01/23 11:28:44;;;;;;;19.60;4.20;;;7.50;99.90;;;;;;4970732;28;20225;-66
2024/01/23 11:31:15;;;;;;;31.47;3.77;;;7.50;99.90;;;;;;5021611;28;20582;-65
2024/01/23 11:33:43;;;;;;;23.00;4.20;;;7.60;99.90;;;;;;5002456;28;20208;-65
2024/01/23 11:36:11;;;;;;;19.23;4.10;;;7.60;99.90;;;;;;5005869;28;20226;-65
2024/01/23 11:38:45;;;;;;;23.53;3.47;;;7.50;99.90;;;;;;5013723;28;20819;-66
2024/01/23 11:41:22;;;;;;;20.63;4.70;;;7.50;99.90;;;;;;5018866;28;20222;-66
2024/01/23 11:43:51;;;;;;;19.77;4.33;;;7.50;99.90;;;;;;4966065;28;21374;-66
2024/01/23 11:46:23;;;;;;;17.93;4.33;;;7.50;99.90;;;;;;5012776;28;20202;-65
2024/01/23 11:48:51;;;;;;;19.27;3.23;;;7.60;99.90;;;;;;4997613;28;20339;-65
2024/01/23 11:51:18;;;;;;;27.60;3.77;;;7.50;99.90;;;;;;5015713;28;20213;-65
2024/01/23 11:53:46;;;;;;;22.67;4.83;;;7.60;99.90;;;;;;4998470;28;20538;-66
2024/01/23 11:56:14;;;;;;;19.67;4.20;;;7.60;99.90;;;;;;5009138;28;20711;-66
2024/01/23 11:58:42;;;;;;;26.50;4.13;;;7.60;99.90;;;;;;4982160;28;20898;-65
2024/01/23 12:01:14;;;;;;;15.80;3.50;;;7.60;99.90;;;;;;5010367;28;20286;-66
2024/01/23 12:03:46;;;;;;;22.67;4.60;;;7.60;99.90;;;;;;4999930;28;20201;-65
2024/01/23 12:06:14;;;;;;;11.13;2.60;;;7.60;99.90;;;;;;5013678;28;20446;-66
2024/01/23 12:08:41;;;;;;;16.50;4.37;;;7.60;99.90;;;;;;4985996;28;20618;-66
2024/01/23 12:11:09;;;;;;;16.90;3.00;;;7.70;99.90;;;;;;5018040;28;20770;-65
2024/01/23 12:13:37;;;;;;;17.53;3.37;;;7.60;99.90;;;;;;4987353;28;20515;-66
2024/01/23 12:16:06;;;;;;;20.30;3.47;;;7.60;99.90;;;;;;5003115;28;20253;-66
2024/01/23 12:18:34;;;;;;;13.73;3.27;;;7.70;99.90;;;;;;5004849;28;20231;-66
2024/01/23 12:21:03;;;;;;;28.03;4.33;;;7.70;99.90;;;;;;5015281;28;20421;-66
2024/01/23 12:23:30;;;;;;;22.83;4.33;;;7.60;99.90;;;;;;5005574;28;20205;-66
2024/01/23 12:25:57;;;;;;;17.47;3.37;;;7.70;99.90;;;;;;5007987;28;20239;-66
2024/01/23 12:28:24;;;;;;;19.07;3.63;;;7.70;99.90;;;;;;5018803;28;20220;-66
2024/01/23 12:30:51;;;;;;;15.52;3.80;;;7.70;99.90;;;;;;4971970;28;20332;-65
2024/01/23 12:33:19;;;;;;;13.30;3.60;;;7.80;99.90;;;;;;5004305;28;20205;-65
2024/01/23 12:35:48;;;;;;;19.63;4.00;;;7.80;99.90;;;;;;5011612;28;20675;-66
2024/01/23 12:38:15;;;;;;;15.30;3.67;;;7.80;99.90;;;;;;5014070;28;20226;-66
2024/01/23 12:40:42;;;;;;;16.33;3.83;;;7.80;99.90;;;;;;5004730;28;20646;-66
2024/01/23 12:43:10;;;;;;;15.00;3.27;;;7.80;99.90;;;;;;5019583;28;20201;-66
2024/01/23 12:45:38;;;;;;;15.83;3.33;;;7.80;99.90;;;;;;4973028;28;20410;-66
2024/01/23 12:48:10;;;;;;;17.00;3.60;;;7.80;99.90;;;;;;5009731;28;20547;-66
2024/01/23 12:50:38;;;;;;;16.17;3.83;;;8.00;99.90;;;;;;5017355;28;20213;-66
2024/01/23 12:53:10;;;;;;;23.30;4.40;;;8.00;99.90;;;;;;5018279;28;20201;-65